sensor_id;sensor_type;location;lat;lon;timestamp;P1;durP1;ratioP1;P2;durP2;ratioP2
32365;SDS011;18837;46.832;16.838;2024-01-07T00:01:26;2.60;;;2.10;;
32365;SDS011;18837;46.832;16.838;2024-01-07T00:03:52;2.27;;;1.97;;
32365;SDS011;18837;46.832;16.838;2024-01-07T00:06:17;2.73;;;2.20;;
32365;SDS011;18837;46.832;16.838;2024-01-07T00:08:43;3.77;;;2.63;;
32365;SDS011;18837;46.832;16.838;2024-01-07T00:11:09;2.37;;;2.17;;
32365;SDS011;18837;46.832;16.838;2024-01-07T00:13:35;3.13;;;2.30;;
32365;SDS011;18837;46.832;16.838;2024-01-07T00:16:01;3.20;;;2.83;;
32365;SDS011;18837;46.832;16.838;2024-01-07T00:18:27;3.60;;;2.83;;
32365;SDS011;18837;46.832;16.838;2024-01-07T00:20:53;2.87;;;2.30;;
32365;SDS011;18837;46.832;16.838;2024-01-07T00:23:19;3.03;;;2.47;;
32365;SDS011;18837;46.832;16.838;2024-01-07T00:25:46;2.87;;;2.30;;
32365;SDS011;18837;46.832;16.838;2024-01-07T00:28:15;3.07;;;2.50;;
32365;SDS011;18837;46.832;16.838;2024-01-07T00:30:41;3.00;;;2.30;;
32365;SDS011;18837;46.832;16.838;2024-01-07T00:33:08;2.67;;;2.07;;
32365;SDS011;18837;46.832;16.838;2024-01-07T00:35:33;3.00;;;2.40;;
32365;SDS011;18837;46.832;16.838;2024-01-07T00:37:59;2.17;;;1.97;;
32365;SDS011;18837;46.832;16.838;2024-01-07T00:40:25;2.80;;;2.07;;
32365;SDS011;18837;46.832;16.838;2024-01-07T00:42:51;2.70;;;2.23;;
32365;SDS011;18837;46.832;16.838;2024-01-07T00:45:17;2.90;;;2.30;;
32365;SDS011;18837;46.832;16.838;2024-01-07T00:47:43;2.30;;;1.90;;
32365;SDS011;18837;46.832;16.838;2024-01-07T00:50:09;2.93;;;2.23;;
32365;SDS011;18837;46.832;16.838;2024-01-07T00:52:35;2.57;;;1.97;;
32365;SDS011;18837;46.832;16.838;2024-01-07T00:55:03;2.40;;;2.03;;
32365;SDS011;18837;46.832;16.838;2024-01-07T00:57:31;2.37;;;2.00;;
32365;SDS011;18837;46.832;16.838;2024-01-07T00:59:57;2.87;;;2.33;;
32365;SDS011;18837;46.832;16.838;2024-01-07T01:02:23;3.27;;;2.30;;
32365;SDS011;18837;46.832;16.838;2024-01-07T01:04:49;2.73;;;2.33;;
32365;SDS011;18837;46.832;16.838;2024-01-07T01:07:15;3.00;;;2.40;;
32365;SDS011;18837;46.832;16.838;2024-01-07T01:09:41;2.67;;;2.20;;
32365;SDS011;18837;46.832;16.838;2024-01-07T01:12:07;2.80;;;2.20;;
32365;SDS011;18837;46.832;16.838;2024-01-07T01:14:32;3.27;;;2.33;;
32365;SDS011;18837;46.832;16.838;2024-01-07T01:16:58;2.60;;;2.30;;
32365;SDS011;18837;46.832;16.838;2024-01-07T01:19:24;3.77;;;2.50;;
32365;SDS011;18837;46.832;16.838;2024-01-07T01:21:51;2.67;;;2.47;;
32365;SDS011;18837;46.832;16.838;2024-01-07T01:24:16;2.40;;;2.20;;
32365;SDS011;18837;46.832;16.838;2024-01-07T01:26:42;3.17;;;2.67;;
32365;SDS011;18837;46.832;16.838;2024-01-07T01:29:08;2.93;;;2.50;;
32365;SDS011;18837;46.832;16.838;2024-01-07T01:31:34;3.37;;;2.47;;
32365;SDS011;18837;46.832;16.838;2024-01-07T01:33:59;2.77;;;2.47;;
32365;SDS011;18837;46.832;16.838;2024-01-07T01:36:26;3.07;;;2.47;;
32365;SDS011;18837;46.832;16.838;2024-01-07T01:38:57;2.50;;;2.10;;
32365;SDS011;18837;46.832;16.838;2024-01-07T01:41:26;2.73;;;2.30;;
32365;SDS011;18837;46.832;16.838;2024-01-07T01:43:56;4.30;;;2.67;;
32365;SDS011;18837;46.832;16.838;2024-01-07T01:46:23;2.87;;;2.40;;
32365;SDS011;18837;46.832;16.838;2024-01-07T01:48:49;2.87;;;2.60;;
32365;SDS011;18837;46.832;16.838;2024-01-07T01:51:14;3.73;;;2.50;;
32365;SDS011;18837;46.832;16.838;2024-01-07T01:53:40;3.33;;;2.43;;
32365;SDS011;18837;46.832;16.838;2024-01-07T01:56:07;3.60;;;2.77;;
32365;SDS011;18837;46.832;16.838;2024-01-07T01:58:33;3.13;;;2.53;;
32365;SDS011;18837;46.832;16.838;2024-01-07T02:00:59;3.37;;;2.40;;
32365;SDS011;18837;46.832;16.838;2024-01-07T02:03:25;2.67;;;2.40;;
32365;SDS011;18837;46.832;16.838;2024-01-07T02:05:51;2.70;;;2.33;;
32365;SDS011;18837;46.832;16.838;2024-01-07T02:08:21;3.27;;;2.67;;
32365;SDS011;18837;46.832;16.838;2024-01-07T02:10:53;2.77;;;2.47;;
32365;SDS011;18837;46.832;16.838;2024-01-07T02:13:19;3.47;;;2.30;;
32365;SDS011;18837;46.832;16.838;2024-01-07T02:15:45;3.33;;;2.60;;
32365;SDS011;18837;46.832;16.838;2024-01-07T02:18:10;3.23;;;2.93;;
32365;SDS011;18837;46.832;16.838;2024-01-07T02:20:36;3.30;;;2.63;;
32365;SDS011;18837;46.832;16.838;2024-01-07T02:23:03;3.90;;;2.70;;
32365;SDS011;18837;46.832;16.838;2024-01-07T02:25:29;3.53;;;2.87;;
32365;SDS011;18837;46.832;16.838;2024-01-07T02:28:00;4.80;;;2.80;;
32365;SDS011;18837;46.832;16.838;2024-01-07T02:30:30;2.80;;;2.50;;
32365;SDS011;18837;46.832;16.838;2024-01-07T02:32:55;3.30;;;3.00;;
32365;SDS011;18837;46.832;16.838;2024-01-07T02:35:21;5.03;;;2.97;;
32365;SDS011;18837;46.832;16.838;2024-01-07T02:37:47;3.47;;;2.93;;
32365;SDS011;18837;46.832;16.838;2024-01-07T02:40:12;2.90;;;2.60;;
32365;SDS011;18837;46.832;16.838;2024-01-07T02:42:38;3.57;;;3.10;;
32365;SDS011;18837;46.832;16.838;2024-01-07T02:45:04;4.73;;;3.10;;
32365;SDS011;18837;46.832;16.838;2024-01-07T02:47:35;6.30;;;3.20;;
32365;SDS011;18837;46.832;16.838;2024-01-07T02:50:01;4.27;;;3.07;;
32365;SDS011;18837;46.832;16.838;2024-01-07T02:52:27;4.23;;;3.40;;
32365;SDS011;18837;46.832;16.838;2024-01-07T02:54:52;4.83;;;3.40;;
32365;SDS011;18837;46.832;16.838;2024-01-07T02:57:18;4.47;;;3.53;;
32365;SDS011;18837;46.832;16.838;2024-01-07T02:59:44;4.03;;;3.10;;
32365;SDS011;18837;46.832;16.838;2024-01-07T03:02:10;5.57;;;3.27;;
32365;SDS011;18837;46.832;16.838;2024-01-07T03:04:47;4.30;;;3.20;;
32365;SDS011;18837;46.832;16.838;2024-01-07T03:07:13;4.33;;;3.13;;
32365;SDS011;18837;46.832;16.838;2024-01-07T03:09:39;4.40;;;3.37;;
32365;SDS011;18837;46.832;16.838;2024-01-07T03:12:05;4.60;;;3.33;;
32365;SDS011;18837;46.832;16.838;2024-01-07T03:14:31;4.13;;;3.47;;
32365;SDS011;18837;46.832;16.838;2024-01-07T03:16:57;4.60;;;3.50;;
32365;SDS011;18837;46.832;16.838;2024-01-07T03:19:22;3.93;;;3.33;;
32365;SDS011;18837;46.832;16.838;2024-01-07T03:21:54;4.43;;;3.60;;
32365;SDS011;18837;46.832;16.838;2024-01-07T03:24:20;4.43;;;3.43;;
32365;SDS011;18837;46.832;16.838;2024-01-07T03:26:46;3.80;;;3.40;;
32365;SDS011;18837;46.832;16.838;2024-01-07T03:29:12;4.40;;;3.23;;
32365;SDS011;18837;46.832;16.838;2024-01-07T03:31:38;4.37;;;3.60;;
32365;SDS011;18837;46.832;16.838;2024-01-07T03:34:04;4.83;;;3.50;;
32365;SDS011;18837;46.832;16.838;2024-01-07T03:36:30;4.77;;;3.63;;
32365;SDS011;18837;46.832;16.838;2024-01-07T03:38:56;4.43;;;3.70;;
32365;SDS011;18837;46.832;16.838;2024-01-07T03:41:21;4.40;;;3.47;;
32365;SDS011;18837;46.832;16.838;2024-01-07T03:43:47;4.50;;;3.63;;
32365;SDS011;18837;46.832;16.838;2024-01-07T03:46:14;4.10;;;3.60;;
32365;SDS011;18837;46.832;16.838;2024-01-07T03:48:41;4.03;;;3.60;;
32365;SDS011;18837;46.832;16.838;2024-01-07T03:51:07;3.93;;;3.50;;
32365;SDS011;18837;46.832;16.838;2024-01-07T03:53:33;4.27;;;3.60;;
32365;SDS011;18837;46.832;16.838;2024-01-07T03:56:02;4.63;;;3.50;;
32365;SDS011;18837;46.832;16.838;2024-01-07T03:58:29;4.97;;;3.53;;
32365;SDS011;18837;46.832;16.838;2024-01-07T04:00:55;4.00;;;3.37;;
32365;SDS011;18837;46.832;16.838;2024-01-07T04:03:20;4.23;;;3.57;;
32365;SDS011;18837;46.832;16.838;2024-01-07T04:05:46;4.13;;;3.50;;
32365;SDS011;18837;46.832;16.838;2024-01-07T04:08:12;4.53;;;3.70;;
32365;SDS011;18837;46.832;16.838;2024-01-07T04:10:38;4.83;;;3.80;;
32365;SDS011;18837;46.832;16.838;2024-01-07T04:13:04;4.63;;;4.10;;
32365;SDS011;18837;46.832;16.838;2024-01-07T04:15:31;4.03;;;3.37;;
32365;SDS011;18837;46.832;16.838;2024-01-07T04:17:57;5.60;;;3.80;;
32365;SDS011;18837;46.832;16.838;2024-01-07T04:20:29;3.97;;;3.20;;
32365;SDS011;18837;46.832;16.838;2024-01-07T04:22:56;4.87;;;3.53;;
32365;SDS011;18837;46.832;16.838;2024-01-07T04:25:25;4.50;;;3.50;;
32365;SDS011;18837;46.832;16.838;2024-01-07T04:27:51;3.87;;;3.13;;
32365;SDS011;18837;46.832;16.838;2024-01-07T04:30:20;3.73;;;3.23;;
32365;SDS011;18837;46.832;16.838;2024-01-07T04:32:47;4.47;;;3.63;;
32365;SDS011;18837;46.832;16.838;2024-01-07T04:35:13;4.57;;;3.60;;
32365;SDS011;18837;46.832;16.838;2024-01-07T04:37:39;4.40;;;3.40;;
32365;SDS011;18837;46.832;16.838;2024-01-07T04:40:05;5.20;;;3.67;;
32365;SDS011;18837;46.832;16.838;2024-01-07T04:42:31;4.53;;;3.67;;
32365;SDS011;18837;46.832;16.838;2024-01-07T04:44:56;4.17;;;3.03;;
32365;SDS011;18837;46.832;16.838;2024-01-07T04:47:29;4.83;;;3.90;;
32365;SDS011;18837;46.832;16.838;2024-01-07T04:49:57;4.77;;;3.93;;
32365;SDS011;18837;46.832;16.838;2024-01-07T04:52:23;6.07;;;3.60;;
32365;SDS011;18837;46.832;16.838;2024-01-07T04:54:53;4.50;;;3.57;;
32365;SDS011;18837;46.832;16.838;2024-01-07T04:57:19;3.80;;;3.37;;
32365;SDS011;18837;46.832;16.838;2024-01-07T04:59:46;5.23;;;3.73;;
32365;SDS011;18837;46.832;16.838;2024-01-07T05:02:13;5.50;;;4.37;;
32365;SDS011;18837;46.832;16.838;2024-01-07T05:04:39;5.57;;;3.83;;
32365;SDS011;18837;46.832;16.838;2024-01-07T05:07:05;4.30;;;3.90;;
32365;SDS011;18837;46.832;16.838;2024-01-07T05:09:31;3.73;;;3.20;;
32365;SDS011;18837;46.832;16.838;2024-01-07T05:11:58;4.20;;;3.80;;
32365;SDS011;18837;46.832;16.838;2024-01-07T05:14:24;4.27;;;3.77;;
32365;SDS011;18837;46.832;16.838;2024-01-07T05:16:50;4.77;;;3.50;;
32365;SDS011;18837;46.832;16.838;2024-01-07T05:19:16;5.27;;;3.83;;
32365;SDS011;18837;46.832;16.838;2024-01-07T05:21:41;4.23;;;3.63;;
32365;SDS011;18837;46.832;16.838;2024-01-07T05:24:13;5.43;;;4.00;;
32365;SDS011;18837;46.832;16.838;2024-01-07T05:26:39;5.70;;;4.00;;
32365;SDS011;18837;46.832;16.838;2024-01-07T05:29:05;4.73;;;3.93;;
32365;SDS011;18837;46.832;16.838;2024-01-07T05:31:31;5.07;;;3.87;;
32365;SDS011;18837;46.832;16.838;2024-01-07T05:33:57;4.90;;;3.97;;
32365;SDS011;18837;46.832;16.838;2024-01-07T05:36:23;5.50;;;4.43;;
32365;SDS011;18837;46.832;16.838;2024-01-07T05:38:49;4.67;;;4.13;;
32365;SDS011;18837;46.832;16.838;2024-01-07T05:41:15;4.20;;;3.80;;
32365;SDS011;18837;46.832;16.838;2024-01-07T05:43:41;4.83;;;4.33;;
32365;SDS011;18837;46.832;16.838;2024-01-07T05:46:06;5.00;;;4.03;;
32365;SDS011;18837;46.832;16.838;2024-01-07T05:48:41;5.50;;;4.57;;
32365;SDS011;18837;46.832;16.838;2024-01-07T05:51:11;5.00;;;4.10;;
32365;SDS011;18837;46.832;16.838;2024-01-07T05:53:37;5.60;;;4.37;;
32365;SDS011;18837;46.832;16.838;2024-01-07T05:56:03;4.17;;;3.77;;
32365;SDS011;18837;46.832;16.838;2024-01-07T05:58:29;4.87;;;4.03;;
32365;SDS011;18837;46.832;16.838;2024-01-07T06:00:55;4.30;;;3.80;;
32365;SDS011;18837;46.832;16.838;2024-01-07T06:03:21;4.90;;;4.30;;
32365;SDS011;18837;46.832;16.838;2024-01-07T06:05:47;6.03;;;4.67;;
32365;SDS011;18837;46.832;16.838;2024-01-07T06:08:13;7.33;;;4.93;;
32365;SDS011;18837;46.832;16.838;2024-01-07T06:10:43;4.97;;;4.40;;
32365;SDS011;18837;46.832;16.838;2024-01-07T06:13:09;5.67;;;4.97;;
32365;SDS011;18837;46.832;16.838;2024-01-07T06:15:36;5.70;;;4.70;;
32365;SDS011;18837;46.832;16.838;2024-01-07T06:18:05;4.90;;;4.37;;
32365;SDS011;18837;46.832;16.838;2024-01-07T06:20:31;5.83;;;4.80;;
32365;SDS011;18837;46.832;16.838;2024-01-07T06:22:56;5.93;;;4.90;;
32365;SDS011;18837;46.832;16.838;2024-01-07T06:25:22;5.63;;;4.67;;
32365;SDS011;18837;46.832;16.838;2024-01-07T06:27:51;6.50;;;4.73;;
32365;SDS011;18837;46.832;16.838;2024-01-07T06:30:17;5.60;;;4.93;;
32365;SDS011;18837;46.832;16.838;2024-01-07T06:32:44;6.43;;;5.27;;
32365;SDS011;18837;46.832;16.838;2024-01-07T06:35:10;7.07;;;5.37;;
32365;SDS011;18837;46.832;16.838;2024-01-07T06:37:36;5.93;;;4.83;;
32365;SDS011;18837;46.832;16.838;2024-01-07T06:40:02;5.87;;;5.27;;
32365;SDS011;18837;46.832;16.838;2024-01-07T06:42:29;6.33;;;5.27;;
32365;SDS011;18837;46.832;16.838;2024-01-07T06:44:54;6.37;;;5.27;;
32365;SDS011;18837;46.832;16.838;2024-01-07T06:47:26;7.37;;;5.20;;
32365;SDS011;18837;46.832;16.838;2024-01-07T06:49:51;6.50;;;4.83;;
32365;SDS011;18837;46.832;16.838;2024-01-07T06:52:18;5.93;;;5.07;;
32365;SDS011;18837;46.832;16.838;2024-01-07T06:54:46;7.67;;;5.40;;
32365;SDS011;18837;46.832;16.838;2024-01-07T06:57:11;7.27;;;5.40;;
32365;SDS011;18837;46.832;16.838;2024-01-07T06:59:37;6.47;;;5.13;;
32365;SDS011;18837;46.832;16.838;2024-01-07T07:02:05;6.70;;;5.47;;
32365;SDS011;18837;46.832;16.838;2024-01-07T07:04:31;6.30;;;5.40;;
32365;SDS011;18837;46.832;16.838;2024-01-07T07:06:58;6.43;;;5.73;;
32365;SDS011;18837;46.832;16.838;2024-01-07T07:09:25;8.03;;;6.10;;
32365;SDS011;18837;46.832;16.838;2024-01-07T07:11:51;7.67;;;6.17;;
32365;SDS011;18837;46.832;16.838;2024-01-07T07:14:17;7.47;;;5.70;;
32365;SDS011;18837;46.832;16.838;2024-01-07T07:16:42;7.23;;;5.90;;
32365;SDS011;18837;46.832;16.838;2024-01-07T07:19:08;8.53;;;5.90;;
32365;SDS011;18837;46.832;16.838;2024-01-07T07:21:39;7.60;;;6.27;;
32365;SDS011;18837;46.832;16.838;2024-01-07T07:24:07;6.37;;;5.57;;
32365;SDS011;18837;46.832;16.838;2024-01-07T07:26:32;6.93;;;5.90;;
32365;SDS011;18837;46.832;16.838;2024-01-07T07:29:01;7.97;;;6.87;;
32365;SDS011;18837;46.832;16.838;2024-01-07T07:31:27;7.80;;;6.10;;
32365;SDS011;18837;46.832;16.838;2024-01-07T07:33:53;8.43;;;6.60;;
32365;SDS011;18837;46.832;16.838;2024-01-07T07:36:18;8.20;;;6.40;;
32365;SDS011;18837;46.832;16.838;2024-01-07T07:38:44;6.83;;;6.03;;
32365;SDS011;18837;46.832;16.838;2024-01-07T07:41:16;7.67;;;6.23;;
32365;SDS011;18837;46.832;16.838;2024-01-07T07:43:42;7.10;;;6.07;;
32365;SDS011;18837;46.832;16.838;2024-01-07T07:46:08;7.30;;;6.10;;
32365;SDS011;18837;46.832;16.838;2024-01-07T07:48:34;7.07;;;6.37;;
32365;SDS011;18837;46.832;16.838;2024-01-07T07:51:00;7.33;;;6.40;;
32365;SDS011;18837;46.832;16.838;2024-01-07T07:53:25;6.63;;;5.93;;
32365;SDS011;18837;46.832;16.838;2024-01-07T07:55:51;7.47;;;6.23;;
32365;SDS011;18837;46.832;16.838;2024-01-07T07:58:18;8.40;;;7.13;;
32365;SDS011;18837;46.832;16.838;2024-01-07T08:00:45;7.33;;;6.40;;
32365;SDS011;18837;46.832;16.838;2024-01-07T08:03:10;8.90;;;7.10;;
32365;SDS011;18837;46.832;16.838;2024-01-07T08:05:36;8.30;;;6.80;;
32365;SDS011;18837;46.832;16.838;2024-01-07T08:08:02;8.37;;;6.50;;
32365;SDS011;18837;46.832;16.838;2024-01-07T08:10:28;8.77;;;6.50;;
32365;SDS011;18837;46.832;16.838;2024-01-07T08:12:56;8.50;;;6.17;;
32365;SDS011;18837;46.832;16.838;2024-01-07T08:15:23;8.57;;;7.20;;
32365;SDS011;18837;46.832;16.838;2024-01-07T08:17:49;8.17;;;6.93;;
32365;SDS011;18837;46.832;16.838;2024-01-07T08:20:16;7.37;;;6.50;;
32365;SDS011;18837;46.832;16.838;2024-01-07T08:22:42;8.37;;;6.43;;
32365;SDS011;18837;46.832;16.838;2024-01-07T08:25:08;6.97;;;5.83;;
32365;SDS011;18837;46.832;16.838;2024-01-07T08:27:34;7.13;;;6.10;;
32365;SDS011;18837;46.832;16.838;2024-01-07T08:30:02;7.90;;;6.40;;
32365;SDS011;18837;46.832;16.838;2024-01-07T08:32:28;9.27;;;6.90;;
32365;SDS011;18837;46.832;16.838;2024-01-07T08:34:54;8.03;;;6.77;;
32365;SDS011;18837;46.832;16.838;2024-01-07T08:37:20;8.80;;;6.87;;
32365;SDS011;18837;46.832;16.838;2024-01-07T08:39:45;8.93;;;6.57;;
32365;SDS011;18837;46.832;16.838;2024-01-07T08:42:11;7.93;;;6.37;;
32365;SDS011;18837;46.832;16.838;2024-01-07T08:44:37;9.03;;;7.17;;
32365;SDS011;18837;46.832;16.838;2024-01-07T08:47:04;8.90;;;6.33;;
32365;SDS011;18837;46.832;16.838;2024-01-07T08:49:30;8.23;;;7.03;;
32365;SDS011;18837;46.832;16.838;2024-01-07T08:51:59;8.40;;;6.53;;
32365;SDS011;18837;46.832;16.838;2024-01-07T08:54:25;9.03;;;6.83;;
32365;SDS011;18837;46.832;16.838;2024-01-07T08:56:51;8.67;;;6.70;;
32365;SDS011;18837;46.832;16.838;2024-01-07T08:59:19;9.10;;;6.40;;
32365;SDS011;18837;46.832;16.838;2024-01-07T09:01:45;7.63;;;6.10;;
32365;SDS011;18837;46.832;16.838;2024-01-07T09:04:11;7.43;;;6.27;;
32365;SDS011;18837;46.832;16.838;2024-01-07T09:06:37;6.90;;;5.90;;
32365;SDS011;18837;46.832;16.838;2024-01-07T09:09:03;7.73;;;5.80;;
32365;SDS011;18837;46.832;16.838;2024-01-07T09:14:08;8.30;;;5.77;;
32365;SDS011;18837;46.832;16.838;2024-01-07T09:16:34;7.67;;;6.20;;
32365;SDS011;18837;46.832;16.838;2024-01-07T09:19:03;7.00;;;5.90;;
32365;SDS011;18837;46.832;16.838;2024-01-07T09:21:28;8.23;;;6.13;;
32365;SDS011;18837;46.832;16.838;2024-01-07T09:23:54;6.63;;;5.40;;
32365;SDS011;18837;46.832;16.838;2024-01-07T09:26:20;7.73;;;5.90;;
32365;SDS011;18837;46.832;16.838;2024-01-07T09:28:46;7.50;;;6.07;;
32365;SDS011;18837;46.832;16.838;2024-01-07T09:31:11;7.80;;;5.93;;
32365;SDS011;18837;46.832;16.838;2024-01-07T09:33:37;6.30;;;5.60;;
32365;SDS011;18837;46.832;16.838;2024-01-07T09:36:04;7.83;;;5.90;;
32365;SDS011;18837;46.832;16.838;2024-01-07T09:38:30;7.57;;;6.13;;
32365;SDS011;18837;46.832;16.838;2024-01-07T09:40:56;7.60;;;6.10;;
32365;SDS011;18837;46.832;16.838;2024-01-07T09:43:24;6.70;;;6.00;;
32365;SDS011;18837;46.832;16.838;2024-01-07T09:48:18;10.27;;;5.77;;
32365;SDS011;18837;46.832;16.838;2024-01-07T09:50:43;7.63;;;6.00;;
32365;SDS011;18837;46.832;16.838;2024-01-07T09:53:16;9.93;;;6.83;;
32365;SDS011;18837;46.832;16.838;2024-01-07T09:55:52;13.27;;;7.67;;
32365;SDS011;18837;46.832;16.838;2024-01-07T09:58:30;20.47;;;18.20;;
32365;SDS011;18837;46.832;16.838;2024-01-07T10:00:59;36.87;;;33.17;;
32365;SDS011;18837;46.832;16.838;2024-01-07T10:03:25;32.07;;;28.97;;
32365;SDS011;18837;46.832;16.838;2024-01-07T10:05:51;31.10;;;27.97;;
32365;SDS011;18837;46.832;16.838;2024-01-07T10:08:17;30.10;;;26.90;;
32365;SDS011;18837;46.832;16.838;2024-01-07T10:10:43;33.13;;;29.70;;
32365;SDS011;18837;46.832;16.838;2024-01-07T10:13:09;40.17;;;34.53;;
32365;SDS011;18837;46.832;16.838;2024-01-07T10:18:11;49.07;;;44.27;;
32365;SDS011;18837;46.832;16.838;2024-01-07T10:20:46;43.63;;;39.23;;
32365;SDS011;18837;46.832;16.838;2024-01-07T10:23:18;41.20;;;37.33;;
32365;SDS011;18837;46.832;16.838;2024-01-07T10:25:45;37.43;;;34.03;;
32365;SDS011;18837;46.832;16.838;2024-01-07T10:28:12;32.67;;;29.53;;
32365;SDS011;18837;46.832;16.838;2024-01-07T10:30:39;32.97;;;27.53;;
32365;SDS011;18837;46.832;16.838;2024-01-07T10:33:05;28.00;;;25.30;;
32365;SDS011;18837;46.832;16.838;2024-01-07T10:35:33;26.73;;;24.10;;
32365;SDS011;18837;46.832;16.838;2024-01-07T10:38:02;27.10;;;24.13;;
32365;SDS011;18837;46.832;16.838;2024-01-07T10:40:30;23.10;;;20.70;;
32365;SDS011;18837;46.832;16.838;2024-01-07T10:42:57;19.80;;;18.00;;
32365;SDS011;18837;46.832;16.838;2024-01-07T10:45:23;18.30;;;16.40;;
32365;SDS011;18837;46.832;16.838;2024-01-07T10:47:50;17.57;;;15.60;;
32365;SDS011;18837;46.832;16.838;2024-01-07T10:53:20;13.20;;;12.00;;
32365;SDS011;18837;46.832;16.838;2024-01-07T10:56:05;12.63;;;11.40;;
32365;SDS011;18837;46.832;16.838;2024-01-07T10:58:36;11.33;;;9.97;;
32365;SDS011;18837;46.832;16.838;2024-01-07T11:01:03;10.10;;;9.20;;
32365;SDS011;18837;46.832;16.838;2024-01-07T11:03:47;9.33;;;8.53;;
32365;SDS011;18837;46.832;16.838;2024-01-07T11:09:52;7.93;;;7.10;;
32365;SDS011;18837;46.832;16.838;2024-01-07T11:11:59;7.70;;;6.90;;
32365;SDS011;18837;46.832;16.838;2024-01-07T11:17:10;6.73;;;6.03;;
32365;SDS011;18837;46.832;16.838;2024-01-07T11:19:38;10.20;;;6.10;;
32365;SDS011;18837;46.832;16.838;2024-01-07T11:22:26;6.27;;;5.23;;
32365;SDS011;18837;46.832;16.838;2024-01-07T11:24:55;5.93;;;5.20;;
32365;SDS011;18837;46.832;16.838;2024-01-07T11:27:23;4.63;;;4.00;;
32365;SDS011;18837;46.832;16.838;2024-01-07T11:30:02;5.60;;;4.00;;
32365;SDS011;18837;46.832;16.838;2024-01-07T11:32:33;4.97;;;4.37;;
32365;SDS011;18837;46.832;16.838;2024-01-07T11:34:59;4.97;;;4.27;;
32365;SDS011;18837;46.832;16.838;2024-01-07T11:37:26;5.13;;;3.53;;
32365;SDS011;18837;46.832;16.838;2024-01-07T11:39:55;4.60;;;3.70;;
32365;SDS011;18837;46.832;16.838;2024-01-07T11:42:22;4.37;;;3.70;;
32365;SDS011;18837;46.832;16.838;2024-01-07T11:44:53;4.30;;;3.90;;
32365;SDS011;18837;46.832;16.838;2024-01-07T11:47:20;4.87;;;3.73;;
32365;SDS011;18837;46.832;16.838;2024-01-07T11:49:48;4.37;;;3.97;;
32365;SDS011;18837;46.832;16.838;2024-01-07T11:52:14;8.43;;;4.13;;
32365;SDS011;18837;46.832;16.838;2024-01-07T11:54:40;5.13;;;3.83;;
32365;SDS011;18837;46.832;16.838;2024-01-07T11:57:07;4.40;;;3.40;;
32365;SDS011;18837;46.832;16.838;2024-01-07T11:59:39;5.90;;;3.90;;
32365;SDS011;18837;46.832;16.838;2024-01-07T12:02:23;5.43;;;4.13;;
32365;SDS011;18837;46.832;16.838;2024-01-07T12:05:07;5.47;;;3.70;;
32365;SDS011;18837;46.832;16.838;2024-01-07T12:07:33;7.27;;;4.10;;
32365;SDS011;18837;46.832;16.838;2024-01-07T12:10:02;4.57;;;3.30;;
32365;SDS011;18837;46.832;16.838;2024-01-07T12:12:28;7.10;;;3.47;;
32365;SDS011;18837;46.832;16.838;2024-01-07T12:14:54;5.53;;;3.77;;
32365;SDS011;18837;46.832;16.838;2024-01-07T12:17:21;3.67;;;3.27;;
32365;SDS011;18837;46.832;16.838;2024-01-07T12:19:47;4.20;;;3.20;;
32365;SDS011;18837;46.832;16.838;2024-01-07T12:22:14;4.50;;;3.67;;
32365;SDS011;18837;46.832;16.838;2024-01-07T12:24:45;4.53;;;3.50;;
32365;SDS011;18837;46.832;16.838;2024-01-07T12:27:11;4.97;;;3.60;;
32365;SDS011;18837;46.832;16.838;2024-01-07T12:29:40;4.10;;;3.43;;
32365;SDS011;18837;46.832;16.838;2024-01-07T12:32:06;4.60;;;3.50;;
32365;SDS011;18837;46.832;16.838;2024-01-07T12:34:37;4.27;;;3.70;;
32365;SDS011;18837;46.832;16.838;2024-01-07T12:37:12;4.53;;;3.67;;
32365;SDS011;18837;46.832;16.838;2024-01-07T12:39:40;4.63;;;3.60;;
32365;SDS011;18837;46.832;16.838;2024-01-07T12:42:05;5.30;;;3.63;;
32365;SDS011;18837;46.832;16.838;2024-01-07T12:44:32;6.87;;;3.70;;
32365;SDS011;18837;46.832;16.838;2024-01-07T12:46:58;14.83;;;4.03;;
32365;SDS011;18837;46.832;16.838;2024-01-07T12:49:24;5.80;;;3.60;;
32365;SDS011;18837;46.832;16.838;2024-01-07T12:51:50;8.43;;;3.60;;
32365;SDS011;18837;46.832;16.838;2024-01-07T12:59:42;6.37;;;3.67;;
32365;SDS011;18837;46.832;16.838;2024-01-07T13:02:08;5.60;;;3.53;;
32365;SDS011;18837;46.832;16.838;2024-01-07T13:04:34;7.50;;;3.40;;
32365;SDS011;18837;46.832;16.838;2024-01-07T13:06:59;4.70;;;3.40;;
32365;SDS011;18837;46.832;16.838;2024-01-07T13:09:31;5.23;;;2.93;;
32365;SDS011;18837;46.832;16.838;2024-01-07T13:12:02;6.90;;;2.80;;
32365;SDS011;18837;46.832;16.838;2024-01-07T13:14:50;5.33;;;3.40;;
32365;SDS011;18837;46.832;16.838;2024-01-07T13:17:15;7.23;;;3.67;;
32365;SDS011;18837;46.832;16.838;2024-01-07T13:19:41;3.83;;;3.07;;
32365;SDS011;18837;46.832;16.838;2024-01-07T13:22:07;3.60;;;3.03;;
32365;SDS011;18837;46.832;16.838;2024-01-07T13:24:34;3.03;;;2.67;;
32365;SDS011;18837;46.832;16.838;2024-01-07T13:27:00;4.33;;;3.20;;
32365;SDS011;18837;46.832;16.838;2024-01-07T13:29:26;3.83;;;3.07;;
32365;SDS011;18837;46.832;16.838;2024-01-07T13:31:52;4.87;;;3.80;;
32365;SDS011;18837;46.832;16.838;2024-01-07T13:34:18;4.33;;;3.23;;
32365;SDS011;18837;46.832;16.838;2024-01-07T13:36:44;3.57;;;2.97;;
32365;SDS011;18837;46.832;16.838;2024-01-07T13:39:09;4.20;;;3.07;;
32365;SDS011;18837;46.832;16.838;2024-01-07T13:41:35;5.00;;;3.33;;
32365;SDS011;18837;46.832;16.838;2024-01-07T13:44:07;4.00;;;3.30;;
32365;SDS011;18837;46.832;16.838;2024-01-07T13:46:40;4.13;;;3.40;;
32365;SDS011;18837;46.832;16.838;2024-01-07T13:49:07;4.13;;;3.67;;
32365;SDS011;18837;46.832;16.838;2024-01-07T13:51:33;5.67;;;3.77;;
32365;SDS011;18837;46.832;16.838;2024-01-07T13:53:58;5.00;;;4.10;;
32365;SDS011;18837;46.832;16.838;2024-01-07T13:56:24;3.63;;;3.33;;
32365;SDS011;18837;46.832;16.838;2024-01-07T14:05:09;4.60;;;4.03;;
32365;SDS011;18837;46.832;16.838;2024-01-07T14:07:36;5.80;;;4.63;;
32365;SDS011;18837;46.832;16.838;2024-01-07T14:12:48;4.77;;;3.70;;
32365;SDS011;18837;46.832;16.838;2024-01-07T14:15:14;4.03;;;3.63;;
32365;SDS011;18837;46.832;16.838;2024-01-07T14:23:13;5.03;;;4.03;;
32365;SDS011;18837;46.832;16.838;2024-01-07T14:25:38;4.90;;;4.40;;
32365;SDS011;18837;46.832;16.838;2024-01-07T14:37:12;5.73;;;4.50;;
32365;SDS011;18837;46.832;16.838;2024-01-07T14:39:38;6.33;;;4.50;;
32365;SDS011;18837;46.832;16.838;2024-01-07T14:42:04;4.80;;;3.70;;
32365;SDS011;18837;46.832;16.838;2024-01-07T14:44:30;5.37;;;4.17;;
32365;SDS011;18837;46.832;16.838;2024-01-07T14:54:32;5.97;;;4.63;;
32365;SDS011;18837;46.832;16.838;2024-01-07T14:57:03;4.80;;;4.13;;
32365;SDS011;18837;46.832;16.838;2024-01-07T14:59:29;6.00;;;4.70;;
32365;SDS011;18837;46.832;16.838;2024-01-07T15:04:26;5.10;;;4.40;;
32365;SDS011;18837;46.832;16.838;2024-01-07T15:07:09;5.80;;;4.57;;
32365;SDS011;18837;46.832;16.838;2024-01-07T15:09:37;5.80;;;4.83;;
32365;SDS011;18837;46.832;16.838;2024-01-07T15:12:04;5.60;;;4.30;;
32365;SDS011;18837;46.832;16.838;2024-01-07T15:14:30;5.60;;;4.57;;
32365;SDS011;18837;46.832;16.838;2024-01-07T15:22:04;6.07;;;4.87;;
32365;SDS011;18837;46.832;16.838;2024-01-07T15:24:35;7.77;;;5.30;;
32365;SDS011;18837;46.832;16.838;2024-01-07T15:27:04;5.70;;;5.10;;
32365;SDS011;18837;46.832;16.838;2024-01-07T15:29:30;6.97;;;5.43;;
32365;SDS011;18837;46.832;16.838;2024-01-07T15:31:59;6.30;;;5.47;;
32365;SDS011;18837;46.832;16.838;2024-01-07T15:34:29;7.13;;;5.43;;